»·PEaware :: FFT250 KLAS-KABQ

FFT250 :: KLAS-KABQ

FLIGHT INFORMATION

Flight Status: Arrived
Operator:
Frontier Airlines
More flights by this operator :: More flights under this callsign
Pilot: Andrew J. (13363)
Aircraft: AIRBUS A320
(A320)
More flights by this aircraft type
Origin: KLAS McCarran Intl
United States
Destination: KABQ Albuquerque Intl Sunport
United States
More flights between these airports :: More routes between these airports
Route: COWBY8 GUP LOWBO3
File this flight plan on PilotEdge
Remarks:
Altitude:
(Current/Filed)
37,000ft
Speed:
(Current/Filed)
453kts
Departed: 17-Oct-20 03:01 PM
Arrived: 17-Oct-20 04:18 PM
Distance/Time
Traveled:
421nm/1:17
Distance/Time
To Go:
Arrived

Flight Plot

Page will automatically refresh every two minutes.

Flight plan parsing failed; only flown route is shown


Map Options




Map Legend


Flown Route
Filed Route
Departure Airport
Arrival Airport
Navaid (VOR, NDB)
Fix

Horizontal Profiles

Position Reports

Time Latitude Longitude Heading Altitude Ground
Speed
17-Oct-20 14:46 36.082321 -115.135089 315 2188ft 0kts
17-Oct-20 14:47 36.082321 -115.135089 315 2188ft 0kts
17-Oct-20 14:48 36.082321 -115.135089 315 2188ft 0kts
17-Oct-20 14:49 36.082321 -115.135089 315 2188ft 0kts
17-Oct-20 14:51 36.082321 -115.135089 315 2188ft 0kts
17-Oct-20 14:52 36.082127 -115.134855 315 2188ft 1kts
17-Oct-20 14:53 36.081947 -115.134248 258 2188ft 2kts
17-Oct-20 14:54 36.081986 -115.134094 248 2188ft 0kts
17-Oct-20 14:55 36.081986 -115.134094 248 2188ft 0kts
17-Oct-20 14:56 36.081499 -115.133998 163 2188ft 7kts
17-Oct-20 14:57 36.078044 -115.133742 180 2188ft 15kts
17-Oct-20 14:58 36.077589 -115.129404 90 2188ft 14kts
17-Oct-20 14:59 36.077587 -115.124695 89 2188ft 16kts
17-Oct-20 15:00 36.076439 -115.122332 272 2188ft 22kts
17-Oct-20 15:01 36.076489 -115.167646 270 3351ft 180kts
17-Oct-20 15:02 36.074508 -115.236463 250 5561ft 234kts
17-Oct-20 15:03 36.011828 -115.283597 200 7034ft 292kts
17-Oct-20 15:04 35.933943 -115.287844 162 7693ft 298kts
17-Oct-20 15:04 35.869536 -115.254365 130 10233ft 312kts
17-Oct-20 15:06 35.833136 -115.124145 104 11798ft 385kts
17-Oct-20 15:06 35.826880 -115.011742 81 13137ft 407kts
17-Oct-20 15:08 35.842066 -114.847734 81 15443ft 420kts
17-Oct-20 15:08 35.852898 -114.727258 81 16932ft 429kts
17-Oct-20 15:10 35.868212 -114.554296 81 18855ft 442kts
17-Oct-20 15:10 35.879302 -114.427184 81 20128ft 450kts
17-Oct-20 15:11 35.892686 -114.271644 82 21541ft 460kts
17-Oct-20 15:12 35.906163 -114.112411 82 22755ft 472kts
17-Oct-20 15:13 35.919756 -113.949720 82 23949ft 481kts
17-Oct-20 15:14 35.905196 -113.784011 99 25028ft 492kts
17-Oct-20 15:15 35.878858 -113.616807 99 26043ft 499kts
17-Oct-20 15:16 35.851955 -113.447579 99 26941ft 506kts
17-Oct-20 15:17 35.824559 -113.276938 100 28017ft 505kts
17-Oct-20 15:18 35.797033 -113.107169 100 29137ft 503kts
17-Oct-20 15:19 35.769392 -112.938346 100 30158ft 503kts
17-Oct-20 15:20 35.741399 -112.769446 100 31066ft 505kts
17-Oct-20 15:21 35.713297 -112.600529 100 32104ft 502kts
17-Oct-20 15:22 35.684966 -112.431880 100 33083ft 501kts
17-Oct-20 15:23 35.656650 -112.265035 101 33962ft 499kts
17-Oct-20 15:26 35.589652 -111.770390 90 36232ft 491kts
17-Oct-20 15:27 35.584978 -111.602564 90 36865ft 490kts
17-Oct-20 15:28 35.580077 -111.435295 90 37288ft 491kts
17-Oct-20 15:29 35.574954 -111.268209 90 37257ft 490kts
17-Oct-20 15:30 35.569600 -111.101208 90 37196ft 490kts
17-Oct-20 15:31 35.563987 -110.933302 90 37169ft 493kts
17-Oct-20 15:32 35.558088 -110.764138 90 37183ft 497kts
17-Oct-20 15:33 35.551951 -110.594697 90 37221ft 499kts
17-Oct-20 15:34 35.545530 -110.424099 90 37228ft 499kts
17-Oct-20 15:35 35.538911 -110.254543 91 37215ft 499kts
17-Oct-20 15:36 35.532043 -110.084448 91 37216ft 498kts
17-Oct-20 15:37 35.524907 -109.914120 91 37247ft 498kts
17-Oct-20 15:38 35.517564 -109.744556 91 37247ft 498kts
17-Oct-20 15:39 35.509957 -109.574558 91 37248ft 498kts
17-Oct-20 15:40 35.502130 -109.404807 91 37251ft 498kts
17-Oct-20 15:41 35.494054 -109.234895 91 37246ft 498kts
17-Oct-20 15:42 35.485767 -109.065532 91 37228ft 499kts
17-Oct-20 15:43 35.477159 -108.894619 91 37215ft 503kts
17-Oct-20 15:44 35.472136 -108.740931 89 37243ft 505kts
17-Oct-20 15:45 35.466847 -108.569283 89 35986ft 505kts
17-Oct-20 15:46 35.461209 -108.394824 90 32640ft 519kts
17-Oct-20 15:47 35.455262 -108.218521 90 29388ft 522kts
17-Oct-20 15:48 35.448979 -108.039824 91 25733ft 529kts
17-Oct-20 15:49 35.442439 -107.861212 91 22762ft 514kts
17-Oct-20 15:50 35.435921 -107.689759 91 20117ft 495kts
17-Oct-20 15:51 35.429375 -107.524166 91 17430ft 476kts
17-Oct-20 15:52 35.422332 -107.372900 100 15833ft 400kts
17-Oct-20 15:53 35.373369 -107.265857 124 14893ft 340kts
17-Oct-20 15:54 35.325246 -107.172346 123 13383ft 307kts
17-Oct-20 15:55 35.276651 -107.086578 139 12007ft 304kts
17-Oct-20 15:56 35.215366 -107.016050 140 10609ft 299kts
17-Oct-20 15:57 35.157267 -106.950547 137 9463ft 288kts
17-Oct-20 15:58 35.103765 -106.886165 134 9084ft 259kts
17-Oct-20 15:59 35.058911 -106.820696 131 8561ft 245kts
17-Oct-20 16:00 35.044125 -106.743019 90 7327ft 226kts
17-Oct-20 16:01 35.044576 -106.674727 88 6244ft 170kts
17-Oct-20 16:02 35.044352 -106.620192 89 5765ft 177kts
17-Oct-20 16:03 35.017575 -106.566149 176 8061ft 251kts
17-Oct-20 16:04 34.951865 -106.587765 199 8314ft 246kts
17-Oct-20 16:05 34.881422 -106.615134 199 8943ft 298kts
17-Oct-20 16:06 34.803021 -106.648045 216 8942ft 297kts
17-Oct-20 16:07 34.795936 -106.733095 307 8946ft 281kts
17-Oct-20 16:08 34.845230 -106.806672 309 8944ft 282kts
17-Oct-20 16:09 34.909034 -106.845590 21 8954ft 270kts
17-Oct-20 16:10 34.937446 -106.769279 78 8951ft 256kts
17-Oct-20 16:11 34.949422 -106.683876 77 8950ft 255kts
17-Oct-20 16:12 34.955178 -106.600408 85 8939ft 224kts
17-Oct-20 16:13 34.974166 -106.535881 39 8332ft 202kts
17-Oct-20 16:14 35.019473 -106.506288 356 6799ft 163kts
17-Oct-20 16:15 35.044134 -106.541417 270 5962ft 154kts
17-Oct-20 16:16 35.044150 -106.590652 270 5331ft 99kts
17-Oct-20 16:17 35.045777 -106.604652 271 5324ft 17kts
17-Oct-20 16:18 35.045771 -106.607132 269 5322ft 8kts
17-Oct-20 16:19 35.045818 -106.612347 271 5321ft 16kts
17-Oct-20 16:20 35.045576 -106.618477 269 5314ft 18kts
17-Oct-20 16:21 35.047915 -106.619569 1 5307ft 12kts
17-Oct-20 16:22 35.048229 -106.618199 158 5308ft 2kts
17-Oct-20 16:23 35.047904 -106.618149 176 5310ft 0kts
17-Oct-20 16:24 35.047904 -106.618149 176 5310ft 0kts
17-Oct-20 16:25 35.047904 -106.618149 176 5310ft 0kts

Navigation Log

Ident Type
Flight plan parsing failed, navigation log unavailable